Time;durP1;ratioP1;P1;durP2;ratioP2;P2;SDS_P1;SDS_P2;PMS_P1;PMS_P2;Temp;Humidity;BMP_temperature;BMP_pressure;BME280_temperature;BME280_humidity;BME280_pressure;Samples;Min_cycle;Max_cycle;Signal;HPM_P1;HPM_P2
2023/10/08 00:02:26;;;;;;;5.72;4.30;;;;;;;14.01;47.67;95333.34;5141383;27;20194;-66
2023/10/08 00:04:55;;;;;;;4.72;3.63;;;;;;;14.04;47.36;95329.03;5158374;27;20321;-67
2023/10/08 00:07:23;;;;;;;6.70;4.07;;;;;;;14.06;47.22;95329.50;5140057;27;20209;-66
2023/10/08 00:09:52;;;;;;;4.75;4.20;;;;;;;14.11;47.15;95327.19;5141087;27;20206;-67
2023/10/08 00:12:20;;;;;;;5.57;4.30;;;;;;;14.12;47.90;95328.78;5140643;27;20199;-66
2023/10/08 00:14:49;;;;;;;5.72;4.60;;;;;;;14.10;48.00;95317.28;5141372;27;20210;-66
2023/10/08 00:17:17;;;;;;;6.13;4.07;;;;;;;14.12;48.29;95312.16;5158604;27;20193;-66
2023/10/08 00:19:44;;;;;;;4.32;3.42;;;;;;;14.15;47.81;95316.97;5158398;27;20205;-67
2023/10/08 00:22:13;;;;;;;5.20;3.60;;;;;;;14.23;47.56;95314.31;5157814;27;20503;-66
2023/10/08 00:24:41;;;;;;;5.35;3.95;;;;;;;14.29;47.69;95312.84;5140104;27;20517;-66
2023/10/08 00:27:14;;;;;;;5.28;3.72;;;;;;;14.34;46.97;95305.03;5140746;27;20205;-66
2023/10/08 00:29:43;;;;;;;4.70;3.63;;;;;;;14.40;45.81;95297.97;5139877;27;20598;-66
2023/10/08 00:32:13;;;;;;;4.28;3.78;;;;;;;14.45;45.40;95297.66;5158146;27;20254;-66
2023/10/08 00:34:42;;;;;;;5.38;3.80;;;;;;;14.48;46.92;95290.53;5139923;27;20379;-66
2023/10/08 00:37:11;;;;;;;5.43;3.92;;;;;;;14.44;47.65;95292.47;5139996;27;20205;-66
2023/10/08 00:39:40;;;;;;;5.45;3.90;;;;;;;14.36;47.62;95290.75;5157995;27;20190;-67
2023/10/08 00:42:08;;;;;;;6.72;3.75;;;;;;;14.25;47.21;95295.34;5157590;27;20255;-67
2023/10/08 00:44:41;;;;;;;6.90;3.75;;;;;;;14.16;47.47;95299.16;5157966;27;20301;-67
2023/10/08 00:47:11;;;;;;;5.80;3.40;;;;;;;14.10;47.73;95294.28;5157793;27;20217;-66
2023/10/08 00:49:54;;;;;;;5.22;4.20;;;;;;;14.03;47.92;95291.41;5157537;27;20492;-66
2023/10/08 00:52:29;;;;;;;5.28;3.60;;;;;;;13.99;47.86;95291.34;5139751;27;20190;-66
2023/10/08 00:57:42;;;;;;;4.45;3.45;;;;;;;13.85;47.84;95286.34;5155092;27;20256;-66
2023/10/08 01:00:22;;;;;;;3.97;3.15;;;;;;;13.83;48.22;95285.09;5139792;27;20559;-66
2023/10/08 01:03:00;;;;;;;5.78;4.15;;;;;;;13.81;48.26;95284.66;5157380;27;20186;-66
2023/10/08 01:05:41;;;;;;;4.95;4.28;;;;;;;13.78;48.25;95275.13;5139520;27;20245;-66
2023/10/08 01:08:12;;;;;;;5.30;4.20;;;;;;;13.75;48.61;95277.81;5139467;27;20210;-66
2023/10/08 01:10:40;;;;;;;5.53;4.03;;;;;;;13.75;48.86;95280.59;5157322;27;20186;-66
2023/10/08 01:13:13;;;;;;;5.28;4.55;;;;;;;13.71;49.25;95281.31;5139694;27;20198;-66
2023/10/08 01:15:44;;;;;;;5.13;4.18;;;;;;;13.67;49.21;95271.34;5139421;27;20239;-66
2023/10/08 01:18:17;;;;;;;5.00;4.50;;;;;;;13.65;49.12;95274.50;5157077;27;20215;-66
2023/10/08 01:20:52;;;;;;;5.30;4.70;;;;;;;13.61;49.11;95270.03;5139573;27;20213;-66
2023/10/08 01:23:22;;;;;;;5.88;5.25;;;;;;;13.57;49.13;95278.28;5156949;27;20170;-67
2023/10/08 01:25:50;;;;;;;7.18;5.53;;;;;;;13.56;49.08;95273.13;5139224;27;20218;-66
2023/10/08 01:28:25;;;;;;;7.22;5.72;;;;;;;13.51;48.66;95278.94;5157116;27;20231;-66
2023/10/08 01:30:55;;;;;;;5.97;5.43;;;;;;;13.45;48.41;95279.25;5156873;27;20261;-67
2023/10/08 01:33:23;;;;;;;6.13;5.40;;;;;;;13.45;48.73;95284.00;5138772;27;20647;-66
2023/10/08 01:35:50;;;;;;;7.43;5.25;;;;;;;13.42;48.68;95284.72;5139185;27;20235;-67
2023/10/08 01:38:23;;;;;;;5.97;5.38;;;;;;;13.41;49.00;95289.47;5156940;27;20700;-66
2023/10/08 01:40:52;;;;;;;6.35;5.53;;;;;;;13.35;48.79;95285.38;5138714;27;20226;-66
2023/10/08 01:43:21;;;;;;;6.63;5.03;;;;;;;13.28;49.08;95301.84;5157512;27;20178;-66
2023/10/08 01:45:51;;;;;;;5.65;4.80;;;;;;;13.24;48.86;95290.69;5139527;27;20253;-66
2023/10/08 01:48:27;;;;;;;6.15;4.95;;;;;;;13.19;49.17;95290.19;5157218;27;20186;-66
2023/10/08 01:50:55;;;;;;;7.57;5.40;;;;;;;13.14;49.14;95288.47;5157034;27;20520;-66
2023/10/08 01:53:22;;;;;;;7.88;5.68;;;;;;;13.13;49.44;95286.88;5156921;27;20187;-66
2023/10/08 01:55:53;;;;;;;6.38;4.88;;;;;;;13.11;49.31;95286.47;5156877;27;20178;-66
2023/10/08 01:58:26;;;;;;;7.25;4.80;;;;;;;13.11;49.20;95289.22;5156968;27;20193;-66
2023/10/08 02:00:58;;;;;;;5.97;4.95;;;;;;;13.09;49.16;95290.75;5156600;27;20552;-66
2023/10/08 02:03:25;;;;;;;8.20;5.38;;;;;;;13.07;49.39;95282.81;5139536;27;20202;-66
2023/10/08 02:05:53;;;;;;;5.72;4.60;;;;;;;13.07;49.53;95284.75;5138377;27;20653;-66
2023/10/08 02:08:21;;;;;;;5.78;5.22;;;;;;;13.02;49.21;95283.88;5157266;27;20182;-66
2023/10/08 02:10:52;;;;;;;5.80;5.05;;;;;;;13.01;49.66;95295.34;5139379;27;20204;-66
2023/10/08 02:13:19;;;;;;;6.43;5.45;;;;;;;12.98;49.79;95285.78;5156364;27;20382;-66
2023/10/08 02:15:51;;;;;;;7.63;5.43;;;;;;;12.92;50.04;95281.69;5138973;27;20194;-66
2023/10/08 02:18:18;;;;;;;5.78;5.00;;;;;;;12.82;50.99;95273.16;5157151;27;20186;-66
2023/10/08 02:20:45;;;;;;;6.05;4.70;;;;;;;12.79;50.76;95277.47;5138585;27;20251;-66
2023/10/08 02:23:13;;;;;;;5.68;4.60;;;;;;;12.75;50.92;95277.38;5139359;27;20201;-66
2023/10/08 02:25:40;;;;;;;8.30;4.88;;;;;;;12.70;50.85;95274.09;5156240;27;20203;-66
2023/10/08 02:28:09;;;;;;;6.30;5.00;;;;;;;12.67;51.02;95272.03;5138430;27;20198;-66
2023/10/08 02:30:38;;;;;;;5.85;4.55;;;;;;;12.66;50.93;95270.44;5139347;27;20195;-66
2023/10/08 02:33:13;;;;;;;5.43;4.82;;;;;;;12.63;50.96;95279.47;5138918;27;20195;-66
2023/10/08 02:35:42;;;;;;;6.40;4.80;;;;;;;12.61;51.00;95270.75;5156166;27;20178;-66
2023/10/08 02:38:09;;;;;;;5.82;4.80;;;;;;;12.57;51.25;95267.09;5139326;27;20205;-66
2023/10/08 02:40:44;;;;;;;6.75;4.70;;;;;;;12.51;51.47;95267.34;5156113;27;20193;-66
2023/10/08 02:43:14;;;;;;;6.78;5.35;;;;;;;12.51;51.83;95264.59;5158213;27;20665;-66
2023/10/08 02:45:41;;;;;;;7.72;5.78;;;;;;;12.49;51.66;95272.47;5160852;27;20202;-66
2023/10/08 02:48:12;;;;;;;6.53;4.93;;;;;;;12.44;52.29;95269.97;5160345;27;20218;-66
2023/10/08 02:50:40;;;;;;;6.60;5.10;;;;;;;12.37;52.25;95269.00;5160090;27;20198;-66
2023/10/08 02:53:10;;;;;;;6.75;4.72;;;;;;;12.36;52.28;95273.72;5160195;27;20178;-66
2023/10/08 02:55:42;;;;;;;5.40;4.90;;;;;;;12.37;52.21;95280.06;5160127;27;20178;-66
2023/10/08 02:58:14;;;;;;;5.72;4.57;;;;;;;12.37;52.04;95280.06;5159846;27;20254;-66
2023/10/08 03:00:41;;;;;;;5.68;4.72;;;;;;;12.39;52.29;95283.28;5159706;27;20179;-66
2023/10/08 03:03:15;;;;;;;6.45;5.28;;;;;;;12.39;52.26;95281.31;5141589;27;20202;-67
2023/10/08 03:05:45;;;;;;;7.13;5.05;;;;;;;12.39;52.59;95286.03;5159818;27;20236;-66
2023/10/08 03:08:19;;;;;;;5.90;4.80;;;;;;;12.36;52.64;95284.78;5159380;27;20273;-66
2023/10/08 03:10:48;;;;;;;6.70;4.90;;;;;;;12.35;52.63;95274.91;5159342;27;20215;-66
2023/10/08 03:13:16;;;;;;;5.03;4.43;;;;;;;12.34;53.05;95281.56;5159319;27;20262;-66
2023/10/08 03:16:07;;;;;;;6.43;5.03;;;;;;;12.35;52.99;95274.09;5141147;27;20198;-66
2023/10/08 03:18:36;;;;;;;7.45;4.80;;;;;;;12.30;53.56;95272.38;5159281;27;20202;-66
2023/10/08 03:21:04;;;;;;;7.40;5.05;;;;;;;12.28;53.33;95271.97;5141587;27;20288;-66
2023/10/08 03:23:34;;;;;;;9.45;5.50;;;;;;;12.22;54.06;95268.66;5159417;27;20210;-66
2023/10/08 03:26:09;;;;;;;7.40;4.90;;;;;;;12.21;53.67;95269.03;5159213;27;20217;-66
2023/10/08 03:28:37;;;;;;;6.35;5.05;;;;;;;12.20;53.68;95264.63;5159199;27;20567;-66
2023/10/08 03:31:04;;;;;;;5.78;5.03;;;;;;;12.18;54.04;95265.00;5141206;27;20186;-66
2023/10/08 03:33:34;;;;;;;7.35;5.18;;;;;;;12.18;54.46;95266.97;5158944;27;20629;-66
2023/10/08 03:36:09;;;;;;;8.98;5.65;;;;;;;12.14;54.28;95260.56;5141032;27;20186;-66
2023/10/08 03:38:51;;;;;;;9.25;5.75;;;;;;;12.11;54.22;95261.25;5141499;27;20193;-66
2023/10/08 03:41:20;;;;;;;8.95;6.18;;;;;;;12.05;54.67;95263.47;5159372;27;20182;-66
2023/10/08 03:44:01;;;;;;;7.03;5.63;;;;;;;11.97;54.24;95256.97;5158757;27;20586;-66
2023/10/08 03:46:30;;;;;;;6.40;5.47;;;;;;;11.90;54.58;95251.28;5158965;27;20281;-66
2023/10/08 03:48:57;;;;;;;7.82;5.80;;;;;;;11.83;55.04;95253.81;5159168;27;20194;-66
2023/10/08 03:51:27;;;;;;;8.50;5.65;;;;;;;11.82;55.04;95247.50;5140627;27;20210;-66
2023/10/08 03:54:15;;;;;;;9.52;5.10;;;;;;;11.82;55.01;95249.47;5139920;27;20220;-66
2023/10/08 03:56:45;;;;;;;6.32;5.00;;;;;;;11.84;55.00;95243.59;5159187;27;20183;-66
2023/10/08 03:59:14;;;;;;;8.70;5.32;;;;;;;11.88;55.29;95233.47;5158696;27;20602;-66
2023/10/08 04:01:43;;;;;;;8.60;5.78;;;;;;;11.91;55.12;95241.03;5159592;27;20211;-66
2023/10/08 04:04:14;;;;;;;8.32;5.72;;;;;;;11.92;55.03;95237.13;5140584;27;20262;-66
2023/10/08 04:06:49;;;;;;;9.10;5.30;;;;;;;11.94;54.56;95234.78;5158369;27;20222;-66
2023/10/08 04:09:25;;;;;;;5.47;4.50;;;;;;;11.95;54.32;95230.88;5158543;27;20194;-66
2023/10/08 04:12:03;;;;;;;5.43;4.53;;;;;;;11.96;54.08;95232.47;5158453;27;20207;-66
2023/10/08 04:14:31;;;;;;;6.35;4.78;;;;;;;11.99;53.94;95229.78;5140921;27;20225;-66
2023/10/08 04:16:58;;;;;;;6.55;4.30;;;;;;;12.04;54.05;95235.03;5140775;27;20285;-66
2023/10/08 04:19:28;;;;;;;6.82;4.80;;;;;;;12.07;53.59;95230.78;5157910;27;20179;-66
2023/10/08 04:21:57;;;;;;;5.38;4.50;;;;;;;12.11;53.56;95239.16;5140177;27;20209;-66
2023/10/08 04:24:34;;;;;;;7.30;4.38;;;;;;;12.15;53.59;95240.81;5158052;27;20179;-66
2023/10/08 04:27:02;;;;;;;7.03;4.75;;;;;;;12.20;53.44;95237.81;5140727;27;20214;-66
2023/10/08 04:29:32;;;;;;;9.45;5.15;;;;;;;12.11;53.34;95236.38;5140277;27;20195;-68
2023/10/08 04:32:07;;;;;;;11.32;5.45;;;;;;;11.96;54.00;95236.03;5140335;27;20274;-66
2023/10/08 04:34:35;;;;;;;9.52;5.47;;;;;;;11.89;54.40;95232.31;5140009;27;20254;-66
2023/10/08 04:37:12;;;;;;;11.43;5.78;;;;;;;11.86;54.73;95230.25;5157982;27;20200;-66
2023/10/08 04:39:40;;;;;;;10.10;5.38;;;;;;;11.82;54.59;95236.44;5157869;27;20643;-66
2023/10/08 04:42:10;;;;;;;8.52;4.88;;;;;;;11.80;55.26;95236.03;5157593;27;20216;-66
2023/10/08 04:44:40;;;;;;;6.95;5.30;;;;;;;11.78;54.99;95241.09;5157484;27;20525;-66
2023/10/08 04:47:09;;;;;;;8.45;5.35;;;;;;;11.80;54.94;95243.47;5139693;27;20210;-66
2023/10/08 04:49:45;;;;;;;10.07;5.82;;;;;;;11.80;54.67;95246.25;5139472;27;20246;-66
2023/10/08 04:52:14;;;;;;;8.73;5.90;;;;;;;11.81;54.96;95253.41;5157678;27;20659;-66
2023/10/08 04:54:51;;;;;;;8.85;5.70;;;;;;;11.80;55.28;95247.06;5139792;27;20223;-66
2023/10/08 04:57:21;;;;;;;6.25;5.28;;;;;;;11.81;55.54;95242.34;5139391;27;20194;-66
2023/10/08 04:59:51;;;;;;;9.27;5.82;;;;;;;11.78;55.55;95249.38;5139605;27;20254;-66
2023/10/08 05:02:29;;;;;;;11.52;6.00;;;;;;;11.76;55.63;95256.41;5140033;27;20206;-66
2023/10/08 05:05:21;;;;;;;8.95;5.93;;;;;;;11.76;55.97;95250.88;5156457;27;20245;-66
2023/10/08 05:08:01;;;;;;;9.73;6.45;;;;;;;11.75;56.31;95249.28;5139670;27;20564;-66
2023/10/08 05:10:45;;;;;;;8.50;5.60;;;;;;;11.74;56.06;95254.03;5157715;27;20266;-66
2023/10/08 05:13:16;;;;;;;8.48;6.43;;;;;;;11.71;56.21;95248.41;5138746;27;20602;-66
2023/10/08 05:16:01;;;;;;;10.20;5.63;;;;;;;11.71;56.42;95259.44;5158194;27;20220;-66
2023/10/08 05:18:54;;;;;;;8.13;6.18;;;;;;;11.68;56.32;95254.63;5156982;27;20207;-66
2023/10/08 05:21:25;;;;;;;7.93;6.43;;;;;;;11.71;56.11;95257.47;5157498;27;20213;-66
2023/10/08 05:24:08;;;;;;;11.52;6.97;;;;;;;11.76;56.07;95250.88;5157509;27;20178;-66
2023/10/08 05:26:41;;;;;;;9.20;6.35;;;;;;;11.79;55.88;95256.50;5157553;27;20206;-66
2023/10/08 05:32:17;;;;;;;10.80;6.60;;;;;;;11.88;55.77;95263.88;5138400;27;20238;-66
2023/10/08 05:34:42;;;;;;;7.70;6.90;;;;;;;11.91;55.48;95261.19;5156295;27;20210;-66
2023/10/08 05:37:31;;;;;;;10.13;6.50;;;;;;;11.97;55.42;95254.22;5157022;27;20193;-66
2023/10/08 05:40:21;;;;;;;9.80;6.28;;;;;;;11.99;55.38;95260.19;5157228;27;20194;-66
2023/10/08 05:42:49;;;;;;;8.73;6.70;;;;;;;12.03;55.74;95269.38;5156778;27;20209;-66
2023/10/08 05:45:29;;;;;;;9.80;7.03;;;;;;;12.06;55.61;95259.59;5138767;27;20281;-66
2023/10/08 05:48:13;;;;;;;11.20;6.80;;;;;;;12.10;55.15;95273.50;5157174;27;20217;-66
2023/10/08 05:50:43;;;;;;;8.77;6.68;;;;;;;12.13;54.93;95267.22;5139070;27;20680;-66
2023/10/08 05:53:19;;;;;;;9.85;6.57;;;;;;;12.16;55.27;95264.53;5138729;27;20213;-66
2023/10/08 05:56:01;;;;;;;10.63;6.85;;;;;;;12.19;55.12;95265.81;5156871;27;20278;-66
2023/10/08 05:58:45;;;;;;;9.02;6.93;;;;;;;12.24;54.99;95271.06;5138347;27;20744;-66
2023/10/08 06:01:26;;;;;;;11.27;7.28;;;;;;;12.30;55.09;95272.38;5156800;27;20183;-66
2023/10/08 06:04:00;;;;;;;9.68;7.13;;;;;;;12.38;55.40;95281.66;5138661;27;20202;-66
2023/10/08 06:06:37;;;;;;;8.55;6.78;;;;;;;12.41;55.42;95281.72;5138649;27;20249;-66
2023/10/08 06:09:21;;;;;;;11.18;7.20;;;;;;;12.45;55.41;95279.84;5139261;27;20288;-66
2023/10/08 06:12:07;;;;;;;8.27;6.78;;;;;;;12.53;55.20;95276.09;5139215;27;20221;-66
2023/10/08 06:17:34;;;;;;;9.27;6.65;;;;;;;12.68;54.69;95260.63;5125790;27;20205;-67
2023/10/08 06:20:09;;;;;;;9.05;6.80;;;;;;;12.75;54.42;95258.00;5142265;27;20678;-66
2023/10/08 06:22:37;;;;;;;11.57;6.70;;;;;;;12.82;54.09;95259.31;5142835;27;20218;-66
2023/10/08 06:25:18;;;;;;;11.73;7.43;;;;;;;12.88;54.41;95252.34;5160726;27;20182;-66
2023/10/08 06:27:46;;;;;;;10.27;7.50;;;;;;;12.97;54.20;95262.03;5125109;27;20229;-66
2023/10/08 06:30:16;;;;;;;8.63;6.57;;;;;;;13.06;54.45;95264.59;5142922;27;20558;-66
2023/10/08 06:32:46;;;;;;;9.43;6.50;;;;;;;13.14;54.23;95263.56;5160305;27;20190;-67
2023/10/08 06:35:17;;;;;;;10.60;6.38;;;;;;;13.24;54.19;95263.00;5160223;27;20186;-67
2023/10/08 06:37:45;;;;;;;10.38;7.57;;;;;;;13.36;54.15;95264.00;5161050;27;20260;-66
2023/10/08 06:40:40;;;;;;;9.93;6.88;;;;;;;13.45;53.99;95253.53;5142940;27;20236;-66
2023/10/08 06:43:24;;;;;;;10.30;6.22;;;;;;;13.59;54.12;95258.53;5141602;27;20205;-66
2023/10/08 06:45:53;;;;;;;11.40;7.30;;;;;;;13.79;54.65;95259.28;5160107;27;20178;-66
2023/10/08 06:48:24;;;;;;;14.23;8.85;;;;;;;13.88;53.83;95260.66;5141785;27;20206;-66
2023/10/08 06:50:56;;;;;;;11.77;9.73;;;;;;;13.97;53.35;95252.06;5141649;27;20217;-66
2023/10/08 06:53:24;;;;;;;13.70;9.57;;;;;;;14.04;53.50;95245.84;5160251;27;20266;-66
2023/10/08 06:55:56;;;;;;;13.30;9.75;;;;;;;14.11;53.50;95257.84;5159569;27;20673;-66
2023/10/08 06:58:25;;;;;;;12.88;9.70;;;;;;;14.24;53.56;95246.59;5142424;27;20202;-66
2023/10/08 07:00:55;;;;;;;12.05;8.20;;;;;;;14.36;53.38;95249.13;5159494;27;20186;-66
2023/10/08 07:03:22;;;;;;;12.82;7.88;;;;;;;14.53;53.60;95247.84;5141668;27;20197;-66
2023/10/08 07:08:32;;;;;;;7.80;4.25;;;;;;;14.83;47.28;95240.34;5139490;27;20206;-66
2023/10/08 07:11:05;;;;;;;6.07;3.75;;;;;;;15.07;45.03;95232.69;5141743;27;20194;-66
2023/10/08 07:13:35;;;;;;;4.50;3.75;;;;;;;15.31;43.00;95234.19;5159601;27;20179;-66
2023/10/08 07:16:04;;;;;;;5.32;3.35;;;;;;;15.56;41.11;95234.47;5159202;27;20610;-66
2023/10/08 07:18:33;;;;;;;4.80;3.67;;;;;;;15.78;40.38;95235.50;5141834;27;20318;-66
2023/10/08 07:21:02;;;;;;;4.85;3.35;;;;;;;15.91;40.12;95233.25;5159948;27;20183;-66
2023/10/08 07:23:34;;;;;;;4.78;3.35;;;;;;;16.18;38.21;95231.91;5159173;27;20194;-66
2023/10/08 07:26:10;;;;;;;4.18;3.72;;;;;;;16.30;37.79;95228.00;5140893;27;20244;-66
2023/10/08 07:28:40;;;;;;;3.50;2.75;;;;;;;16.42;37.34;95224.94;5140068;27;20235;-66
2023/10/08 07:31:15;;;;;;;5.10;3.40;;;;;;;16.58;37.15;95219.06;5141349;27;20210;-66
2023/10/08 07:33:43;;;;;;;4.22;3.15;;;;;;;16.71;36.33;95228.72;5158843;27;20178;-66
2023/10/08 07:36:14;;;;;;;4.68;3.72;;;;;;;16.83;36.17;95211.69;5141210;27;20194;-66
2023/10/08 07:38:42;;;;;;;3.50;2.95;;;;;;;17.00;35.86;95212.19;5141160;27;20198;-66
2023/10/08 07:41:09;;;;;;;5.25;3.00;;;;;;;17.12;35.37;95217.41;5141546;27;20194;-66
2023/10/08 07:43:38;;;;;;;3.70;3.00;;;;;;;17.21;35.67;95212.28;5140906;27;20300;-66
2023/10/08 07:46:06;;;;;;;4.80;3.70;;;;;;;17.37;34.93;95205.56;5158818;27;20291;-66
2023/10/08 07:48:33;;;;;;;4.88;3.28;;;;;;;17.54;35.09;95208.41;5158941;27;20193;-66
2023/10/08 07:51:00;;;;;;;4.30;3.05;;;;;;;17.74;34.17;95205.25;5159056;27;20207;-66
2023/10/08 07:53:37;;;;;;;5.72;3.50;;;;;;;17.83;34.43;95202.91;5158556;27;20598;-66
2023/10/08 07:56:06;;;;;;;3.72;3.22;;;;;;;17.86;34.54;95198.50;5141148;27;20266;-66
2023/10/08 07:58:34;;;;;;;6.65;4.00;;;;;;;18.07;34.22;95206.09;5158901;27;20280;-66
2023/10/08 08:01:06;;;;;;;4.68;3.03;;;;;;;18.15;34.35;95197.31;5140702;27;20250;-66
2023/10/08 08:03:36;;;;;;;4.72;3.28;;;;;;;18.26;33.93;95191.75;5139872;27;20217;-66
2023/10/08 08:06:06;;;;;;;4.07;3.13;;;;;;;18.34;33.71;95192.53;5157941;27;20227;-66
2023/10/08 08:08:35;;;;;;;4.60;3.20;;;;;;;18.46;34.49;95195.72;5158549;27;20564;-66
2023/10/08 08:11:06;;;;;;;6.45;3.33;;;;;;;18.59;33.04;95184.94;5157966;27;20239;-66
2023/10/08 08:13:33;;;;;;;3.75;3.03;;;;;;;18.66;32.60;95182.09;5158567;27;20190;-66
2023/10/08 08:16:09;;;;;;;4.05;3.30;;;;;;;18.70;33.40;95176.50;5140445;27;20194;-66
2023/10/08 08:18:38;;;;;;;5.53;3.25;;;;;;;18.75;33.53;95173.34;5140560;27;20204;-66
2023/10/08 08:21:14;;;;;;;4.32;3.50;;;;;;;18.89;34.10;95167.72;5140992;27;20194;-66
2023/10/08 08:23:47;;;;;;;5.25;3.40;;;;;;;19.09;32.43;95170.03;5140497;27;20190;-66
2023/10/08 08:26:26;;;;;;;4.68;3.38;;;;;;;19.21;33.35;95172.41;5140654;27;20217;-66
2023/10/08 08:28:55;;;;;;;7.88;5.28;;;;;;;19.35;33.22;95172.31;5158355;27;20190;-66
2023/10/08 08:31:24;;;;;;;4.45;3.30;;;;;;;19.44;31.65;95180.28;5157991;27;20182;-67
2023/10/08 08:33:59;;;;;;;3.90;3.25;;;;;;;19.49;31.74;95177.03;5157605;27;20598;-66
2023/10/08 08:36:28;;;;;;;3.83;3.20;;;;;;;19.50;31.37;95164.66;5139811;27;20198;-66
2023/10/08 08:38:55;;;;;;;4.55;3.15;;;;;;;19.48;31.61;95172.66;5157838;27;20215;-66
2023/10/08 08:41:23;;;;;;;5.65;3.13;;;;;;;19.41;32.29;95161.50;5140152;27;20205;-66
2023/10/08 08:43:56;;;;;;;5.68;3.15;;;;;;;19.43;32.17;95161.91;5139114;27;20202;-66
2023/10/08 08:46:29;;;;;;;4.50;3.40;;;;;;;19.60;31.83;95155.38;5157895;27;20197;-66
2023/10/08 08:49:03;;;;;;;4.78;3.28;;;;;;;19.73;32.15;95155.75;5139462;27;20198;-66
2023/10/08 08:51:31;;;;;;;5.57;3.58;;;;;;;19.73;32.11;95154.97;5139636;27;20209;-66
2023/10/08 08:54:06;;;;;;;5.32;4.00;;;;;;;19.76;32.70;95152.13;5139423;27;20194;-66
2023/10/08 08:56:34;;;;;;;5.80;3.45;;;;;;;19.84;32.42;95155.66;5139902;27;20210;-66
2023/10/08 08:59:02;;;;;;;5.20;3.40;;;;;;;19.82;31.73;95153.28;5157484;27;20201;-66
2023/10/08 09:01:30;;;;;;;5.18;3.45;;;;;;;19.92;31.22;95146.00;5157857;27;20183;-66
2023/10/08 09:04:05;;;;;;;5.05;3.83;;;;;;;19.96;31.49;95149.56;5139657;27;20286;-66
2023/10/08 09:06:33;;;;;;;4.53;3.50;;;;;;;19.95;32.03;95143.19;5157699;27;20225;-66
2023/10/08 09:09:21;;;;;;;5.97;4.60;;;;;;;19.98;32.61;95144.38;5157310;27;20193;-66
2023/10/08 09:11:51;;;;;;;6.03;3.50;;;;;;;20.09;31.16;95145.06;5139724;27;20615;-66
2023/10/08 09:14:20;;;;;;;5.45;3.90;;;;;;;20.24;32.37;95147.75;5157348;27;20214;-66
2023/10/08 09:16:47;;;;;;;4.78;3.63;;;;;;;20.39;30.75;95147.19;5139018;27;20202;-67
2023/10/08 09:19:18;;;;;;;3.45;3.13;;;;;;;20.43;31.19;95138.75;5157169;27;20186;-66
2023/10/08 09:21:45;;;;;;;8.43;3.72;;;;;;;20.55;30.69;95140.28;5157312;27;20179;-66
2023/10/08 09:24:12;;;;;;;4.95;3.67;;;;;;;20.64;31.04;95132.97;5139834;27;20223;-66
2023/10/08 09:26:39;;;;;;;4.00;3.40;;;;;;;20.72;30.65;95139.28;5156808;27;20525;-66
2023/10/08 09:29:07;;;;;;;5.28;3.50;;;;;;;20.80;30.72;95128.78;5156805;27;20281;-66
2023/10/08 09:31:36;;;;;;;5.30;3.80;;;;;;;20.83;30.66;95130.78;5157307;27;20189;-66
2023/10/08 09:34:04;;;;;;;6.20;3.40;;;;;;;20.86;30.69;95132.75;5139213;27;20246;-66
2023/10/08 09:36:33;;;;;;;4.80;3.53;;;;;;;20.84;30.12;95121.13;5156973;27;20183;-66
2023/10/08 09:39:04;;;;;;;3.80;3.33;;;;;;;20.91;30.86;95135.91;5156938;27;20231;-66
2023/10/08 09:41:32;;;;;;;6.80;4.00;;;;;;;21.07;30.21;95128.88;5156625;27;20206;-66
2023/10/08 09:43:59;;;;;;;5.53;3.80;;;;;;;21.16;30.21;95123.56;5139337;27;20190;-66
2023/10/08 09:46:31;;;;;;;6.18;3.70;;;;;;;21.19;30.79;95119.91;5156918;27;20179;-66
2023/10/08 09:49:01;;;;;;;4.03;3.10;;;;;;;21.16;30.21;95117.94;5139087;27;20202;-66
2023/10/08 09:51:30;;;;;;;5.55;3.85;;;;;;;20.99;30.11;95111.38;5158316;27;20276;-67
2023/10/08 09:54:05;;;;;;;7.35;4.72;;;;;;;20.87;30.17;95109.88;5142940;27;20191;-66
2023/10/08 09:56:34;;;;;;;5.50;3.83;;;;;;;20.73;30.53;95101.63;5161094;27;20182;-66
2023/10/08 09:59:01;;;;;;;4.68;3.40;;;;;;;20.61;30.49;95102.19;5143143;27;20199;-66
2023/10/08 10:01:31;;;;;;;5.60;3.67;;;;;;;20.51;30.67;95117.91;5143409;27;20190;-66
2023/10/08 10:04:00;;;;;;;6.20;3.75;;;;;;;20.40;30.57;95103.19;5143317;27;20276;-66
2023/10/08 10:06:28;;;;;;;5.72;3.80;;;;;;;20.30;30.84;95106.88;5142444;27;20321;-66
2023/10/08 10:08:57;;;;;;;4.45;3.65;;;;;;;20.22;31.69;95102.56;5143406;27;20216;-66
2023/10/08 10:11:29;;;;;;;5.25;3.83;;;;;;;20.19;32.45;95095.81;5142705;27;20206;-67
2023/10/08 10:14:00;;;;;;;4.38;3.50;;;;;;;20.28;32.69;95082.09;5160820;27;20256;-72
2023/10/08 10:16:27;;;;;;;5.72;3.25;;;;;;;20.51;32.13;95084.28;5160898;27;20175;-66
2023/10/08 10:18:58;;;;;;;4.13;3.08;;;;;;;20.79;31.24;95091.56;5142699;27;20198;-66
2023/10/08 10:21:30;;;;;;;3.90;3.28;;;;;;;21.09;31.31;95087.97;5161137;27;20179;-66
2023/10/08 10:23:58;;;;;;;5.28;3.80;;;;;;;21.37;30.61;95086.03;5160342;27;20166;-66
2023/10/08 10:26:30;;;;;;;5.97;3.30;;;;;;;21.62;29.89;95077.25;5142029;27;20195;-67
2023/10/08 10:29:19;;;;;;;8.57;3.50;;;;;;;21.77;29.94;95075.81;5160870;27;20255;-66
2023/10/08 10:31:47;;;;;;;3.55;3.25;;;;;;;21.90;29.84;95070.41;5142025;27;20281;-67
2023/10/08 10:34:17;;;;;;;4.78;2.97;;;;;;;21.88;29.88;95070.03;5160471;27;20239;-67
2023/10/08 10:36:48;;;;;;;5.03;3.00;;;;;;;21.82;30.12;95066.91;5142262;27;20190;-66
2023/10/08 10:39:16;;;;;;;5.30;3.10;;;;;;;21.65;30.93;95062.38;5142587;27;20183;-66
2023/10/08 10:41:45;;;;;;;4.50;3.10;;;;;;;21.67;31.03;95067.56;5160141;27;20194;-66
2023/10/08 10:44:13;;;;;;;6.68;3.00;;;;;;;21.76;30.90;95060.19;5160255;27;20174;-66
2023/10/08 10:46:42;;;;;;;4.68;3.42;;;;;;;21.76;30.94;95062.22;5142144;27;20202;-66
2023/10/08 10:49:21;;;;;;;4.78;3.28;;;;;;;21.69;31.42;95053.91;5160063;27;20209;-66
2023/10/08 10:51:57;;;;;;;4.07;3.33;;;;;;;21.54;31.40;95056.94;5141999;27;20208;-66
2023/10/08 10:54:25;;;;;;;4.32;3.20;;;;;;;21.42;31.23;95049.09;5159964;27;20196;-66
2023/10/08 10:57:03;;;;;;;4.13;2.80;;;;;;;21.31;31.97;95049.22;5141649;27;20512;-66
2023/10/08 10:59:36;;;;;;;7.38;2.95;;;;;;;21.32;32.35;95036.78;5141554;27;20198;-66
2023/10/08 11:02:08;;;;;;;4.03;2.58;;;;;;;21.46;31.92;95037.81;5159324;27;20536;-67
2023/10/08 11:04:47;;;;;;;4.47;2.90;;;;;;;21.61;31.96;95034.38;5140637;27;20200;-66
2023/10/08 11:07:15;;;;;;;4.57;3.40;;;;;;;21.67;31.77;95036.69;5159334;27;20182;-66
2023/10/08 11:09:44;;;;;;;4.28;3.20;;;;;;;21.66;32.05;95032.28;5159901;27;20547;-66
2023/10/08 11:12:22;;;;;;;4.53;2.72;;;;;;;21.56;32.52;95020.00;5141601;27;20519;-66
2023/10/08 11:14:51;;;;;;;3.85;3.10;;;;;;;21.52;32.35;95022.09;5159567;27;20197;-66
2023/10/08 11:17:24;;;;;;;4.32;2.90;;;;;;;21.46;32.12;95016.19;5141242;27;20195;-66
2023/10/08 11:19:52;;;;;;;3.92;2.85;;;;;;;21.54;32.15;95025.28;5141564;27;20532;-68
2023/10/08 11:22:22;;;;;;;4.65;3.08;;;;;;;21.53;32.05;95006.84;5159674;27;20178;-73
2023/10/08 11:24:53;;;;;;;4.97;3.20;;;;;;;21.54;32.39;95005.63;5141317;27;20513;-68
2023/10/08 11:27:29;;;;;;;5.40;3.03;;;;;;;21.52;32.67;95011.66;5159285;27;20214;-68
2023/10/08 11:29:57;;;;;;;5.18;2.80;;;;;;;21.51;32.95;95004.47;5159275;27;20197;-65
2023/10/08 11:32:26;;;;;;;5.53;2.95;;;;;;;21.50;33.13;95007.72;5159258;27;20175;-65
2023/10/08 11:34:57;;;;;;;6.05;2.95;;;;;;;21.54;32.70;95000.81;5141363;27;20255;-65
2023/10/08 11:37:29;;;;;;;5.95;2.67;;;;;;;21.60;33.20;94999.09;5159081;27;20186;-65
2023/10/08 11:39:58;;;;;;;4.65;2.75;;;;;;;21.74;32.39;95000.06;5140655;27;20227;-65
2023/10/08 11:42:43;;;;;;;4.82;2.70;;;;;;;21.76;32.61;94998.44;5141526;27;20700;-65
2023/10/08 11:45:23;;;;;;;5.50;3.22;;;;;;;21.79;32.36;95008.03;5141831;27;20239;-66
2023/10/08 11:47:56;;;;;;;6.70;2.90;;;;;;;21.75;32.90;95004.47;5158580;27;20213;-65
2023/10/08 11:50:33;;;;;;;7.60;2.85;;;;;;;21.70;32.67;95004.97;5158624;27;20286;-65
2023/10/08 11:53:05;;;;;;;5.70;3.10;;;;;;;21.65;33.16;95003.44;5159254;27;20190;-65
2023/10/08 11:55:35;;;;;;;6.15;3.05;;;;;;;21.57;32.80;95002.78;5141289;27;20207;-67
2023/10/08 11:58:10;;;;;;;4.82;3.08;;;;;;;21.53;32.91;95006.84;5140752;27;20197;-65
2023/10/08 12:00:43;;;;;;;7.38;2.95;;;;;;;21.49;32.83;95003.28;5158288;27;20517;-65
2023/10/08 12:03:11;;;;;;;4.85;3.35;;;;;;;21.51;32.82;95006.47;5158624;27;20182;-65
2023/10/08 12:05:47;;;;;;;6.68;3.42;;;;;;;21.49;33.25;95001.28;5158362;27;20237;-66